Terminal Aerodrome Forecast
Issued by NWS Pocatello, ID

Home | Current Version | Previous Version | Text Only | Print | Product List | Glossary On
Versions: 1 2 3 4 5 6 7 8 9 10 11 12 13 14 15
000
FTUS45 KPIH 261738
TAFPIH
TAF
KPIH 261738Z 2618/2718 20010KT P6SM FEW030 SCT050 SCT190
     FM270100 19011KT P6SM -SHRA SCT020 BKN040 OVC050
     FM271100 20010KT P6SM VCSH SCT020 BKN030=

USA.gov is the U.S. government's official web portal to all federal, state and local government web resources and services.